^^
Station Historical Data
Daily Summary for December 27, 2017 Units:  Both    English   Metric
« Previous Day
Next Day »
Daily Weekly Monthly Yearly Custom
  High: Low: Average:
Temperature: TemperatureF °F /  -17.8 °C 63.9 °F /  17.7 °C 74.9 °F /  23.8 °C
Dew Point: DewpointF °F /  -17.8 °C 26.4 °F /  -3.1 °C 47 °F /  8.3 °C
Humidity: Humidity% 17% 43%
Wind Speed: WindSpeedMPHmph /  0km/h - 2.3mph /  3.7km/h
Wind Gust: WindSpeedGustMPHmph /  0km/h - -
Wind- - SSE
Pressure: PressureIn in /  0 hPa 30.02 in /  1016.5 hPa -
Precipitation: 0.13 in /  3.3 mm    
Historical Graphs
 
 
Tabular Data for December 27, 2017
Time Temperature Dew Point Pressure Wind Wind Speed Wind Gust Humidity Rainfall Rate (Hourly) solar Conditions
TemperatureF °F /  -17.8 °C DewpointF °F /  -17.8 °C PressureInin /  0hPa Calm     Humidity% HourlyPrecipInin /  0mm SolarRadiationWatts/m^2 W/m2 Conditions
00:02 75.6 °F /  24.2 °C 37.2 °F /  2.9 °C 30.12in /  1019.9hPa ENE 2.0mph /  3.2km/h 3.0mph /  4.8km/h 25% 0.00in /  0mm 0.0 W/m2
00:07 74.8 °F /  23.8 °C 37.6 °F /  3.1 °C 30.12in /  1019.9hPa NE 2.0mph /  3.2km/h 3.0mph /  4.8km/h 26% 0.00in /  0mm 0.0 W/m2
00:12 74.5 °F /  23.6 °C 37.4 °F /  3 °C 30.12in /  1019.9hPa Calm   3.0mph /  4.8km/h 26% 0.00in /  0mm 0.0 W/m2
00:14 74.5 °F /  23.6 °C 37.4 °F /  3 °C 30.12in /  1019.9hPa Calm   2.0mph /  3.2km/h 26% 0.00in /  0mm 0.0 W/m2
00:19 74.1 °F /  23.4 °C 37.0 °F /  2.8 °C 30.12in /  1019.9hPa Calm   2.0mph /  3.2km/h 26% 0.00in /  0mm 0.0 W/m2
00:24 73.9 °F /  23.3 °C 36.0 °F /  2.2 °C 30.12in /  1019.9hPa Calm   1.0mph /  1.6km/h 25% 0.00in /  0mm 0.0 W/m2
00:27 73.8 °F /  23.2 °C 35.8 °F /  2.1 °C 30.12in /  1019.9hPa Calm   1.0mph /  1.6km/h 25% 0.00in /  0mm 0.0 W/m2
00:33 73.8 °F /  23.2 °C 35.8 °F /  2.1 °C 30.12in /  1019.9hPa Calm     25% 0.00in /  0mm 0.0 W/m2
00:37 73.8 °F /  23.2 °C 35.8 °F /  2.1 °C 30.12in /  1019.9hPa Calm     25% 0.00in /  0mm 0.0 W/m2
00:43 73.2 °F /  22.9 °C 36.3 °F /  2.4 °C 30.12in /  1019.9hPa Calm   1.0mph /  1.6km/h 26% 0.00in /  0mm 0.0 W/m2
00:48 73.0 °F /  22.8 °C 36.1 °F /  2.3 °C 30.11in /  1019.5hPa Calm   1.0mph /  1.6km/h 26% 0.00in /  0mm 0.0 W/m2
00:53 72.9 °F /  22.7 °C 36.9 °F /  2.7 °C 30.12in /  1019.9hPa Calm     27% 0.00in /  0mm 0.0 W/m2
00:59 72.7 °F /  22.6 °C 36.9 °F /  2.7 °C 30.12in /  1019.9hPa Calm   2.0mph /  3.2km/h 27% 0.00in /  0mm 0.0 W/m2
01:01 72.3 °F /  22.4 °C 36.5 °F /  2.5 °C 30.12in /  1019.9hPa Calm   1.0mph /  1.6km/h 27% 0.00in /  0mm 0.0 W/m2
01:07 72.1 °F /  22.3 °C 36.3 °F /  2.4 °C 30.12in /  1019.9hPa Calm     27% 0.00in /  0mm 0.0 W/m2
01:12 72.0 °F /  22.2 °C 36.1 °F /  2.3 °C 30.11in /  1019.5hPa Calm     27% 0.00in /  0mm 0.0 W/m2
01:17 71.8 °F /  22.1 °C 36.0 °F /  2.2 °C 30.11in /  1019.5hPa Calm     27% 0.00in /  0mm 0.0 W/m2
01:23 71.8 °F /  22.1 °C 36.9 °F /  2.7 °C 30.11in /  1019.5hPa Calm   1.0mph /  1.6km/h 28% 0.00in /  0mm 0.0 W/m2
01:28 71.4 °F /  21.9 °C 36.7 °F /  2.6 °C 30.11in /  1019.5hPa Calm     28% 0.00in /  0mm 0.0 W/m2
01:33 71.4 °F /  21.9 °C 36.7 °F /  2.6 °C 30.11in /  1019.5hPa Calm     28% 0.00in /  0mm 0.0 W/m2
01:38 71.2 °F /  21.8 °C 35.6 °F /  2 °C 30.11in /  1019.5hPa South 0.9mph /  1.4km/h 5.0mph /  8km/h 27% 0.00in /  0mm 0.0 W/m2
01:43 71.4 °F /  21.9 °C 32.7 °F /  0.4 °C 30.11in /  1019.5hPa Calm   5.0mph /  8km/h 24% 0.00in /  0mm 0.0 W/m2
01:48 72.5 °F /  22.5 °C 32.5 °F /  0.3 °C 30.11in /  1019.5hPa SSW 4.9mph /  7.9km/h 8.0mph /  12.9km/h 23% 0.00in /  0mm 0.0 W/m2
01:53 73.6 °F /  23.1 °C 32.4 °F /  0.2 °C 30.11in /  1019.5hPa SE 4.0mph /  6.4km/h 6.0mph /  9.7km/h 22% 0.00in /  0mm 0.0 W/m2
01:58 74.5 °F /  23.6 °C 32.0 °F /  0 °C 30.11in /  1019.5hPa SE 4.9mph /  7.9km/h 9.0mph /  14.5km/h 21% 0.00in /  0mm 0.0 W/m2
02:03 75.2 °F /  24 °C 32.5 °F /  0.3 °C 30.10in /  1019.2hPa Calm   9.0mph /  14.5km/h 21% 0.00in /  0mm 0.0 W/m2
02:08 75.6 °F /  24.2 °C 31.6 °F /  -0.2 °C 30.10in /  1019.2hPa West 4.9mph /  7.9km/h 7.0mph /  11.3km/h 20% 0.00in /  0mm 0.0 W/m2
02:11 75.7 °F /  24.3 °C 31.8 °F /  -0.1 °C 30.10in /  1019.2hPa SE 6.9mph /  11.1km/h 13.0mph /  20.9km/h 20% 0.00in /  0mm 0.0 W/m2
02:16 76.1 °F /  24.5 °C 30.9 °F /  -0.6 °C 30.10in /  1019.2hPa SE 6.0mph /  9.7km/h 11.0mph /  17.7km/h 19% 0.00in /  0mm 0.0 W/m2
02:19 76.3 °F /  24.6 °C 30.9 °F /  -0.6 °C 30.10in /  1019.2hPa SE 2.0mph /  3.2km/h 8.0mph /  12.9km/h 19% 0.00in /  0mm 0.0 W/m2
02:25 76.3 °F /  24.6 °C 30.9 °F /  -0.6 °C 30.10in /  1019.2hPa SSE 8.1mph /  13km/h 9.0mph /  14.5km/h 19% 0.00in /  0mm 0.0 W/m2
02:29 76.1 °F /  24.5 °C 30.9 °F /  -0.6 °C 30.10in /  1019.2hPa SSE 8.9mph /  14.3km/h 11.0mph /  17.7km/h 19% 0.00in /  0mm 0.0 W/m2
02:34 75.9 °F /  24.4 °C 29.3 °F /  -1.5 °C 30.09in /  1018.8hPa SSE 4.9mph /  7.9km/h 11.0mph /  17.7km/h 18% 0.00in /  0mm 0.0 W/m2
02:39 75.9 °F /  24.4 °C 29.3 °F /  -1.5 °C 30.09in /  1018.8hPa SE 0.9mph /  1.4km/h 8.0mph /  12.9km/h 18% 0.00in /  0mm 0.0 W/m2
02:44 75.9 °F /  24.4 °C 29.3 °F /  -1.5 °C 30.10in /  1019.2hPa Calm   8.0mph /  12.9km/h 18% 0.00in /  0mm 0.0 W/m2
02:48 75.9 °F /  24.4 °C 29.3 °F /  -1.5 °C 30.10in /  1019.2hPa ESE 2.0mph /  3.2km/h 6.0mph /  9.7km/h 18% 0.00in /  0mm 0.0 W/m2
02:53 75.7 °F /  24.3 °C 30.6 °F /  -0.8 °C 30.10in /  1019.2hPa Calm   4.0mph /  6.4km/h 19% 0.00in /  0mm 0.0 W/m2
02:58 75.6 °F /  24.2 °C 30.4 °F /  -0.9 °C 30.10in /  1019.2hPa ESE 2.9mph /  4.7km/h 5.0mph /  8km/h 19% 0.00in /  0mm 0.0 W/m2
03:03 75.4 °F /  24.1 °C 30.2 °F /  -1 °C 30.09in /  1018.8hPa SE 4.0mph /  6.4km/h 4.0mph /  6.4km/h 19% 0.00in /  0mm 0.0 W/m2
03:08 75.0 °F /  23.9 °C 30.0 °F /  -1.1 °C 30.09in /  1018.8hPa SSE 0.9mph /  1.4km/h 3.0mph /  4.8km/h 19% 0.00in /  0mm 0.0 W/m2
03:13 74.7 °F /  23.7 °C 29.7 °F /  -1.3 °C 30.09in /  1018.8hPa SE 0.9mph /  1.4km/h 5.0mph /  8km/h 19% 0.00in /  0mm 0.0 W/m2
03:15 74.7 °F /  23.7 °C 29.7 °F /  -1.3 °C 30.09in /  1018.8hPa SE 0.9mph /  1.4km/h 6.0mph /  9.7km/h 19% 0.00in /  0mm 0.0 W/m2
03:17 74.5 °F /  23.6 °C 29.5 °F /  -1.4 °C 30.09in /  1018.8hPa SSE 2.9mph /  4.7km/h 6.0mph /  9.7km/h 19% 0.00in /  0mm 0.0 W/m2
03:22 74.3 °F /  23.5 °C 30.6 °F /  -0.8 °C 30.09in /  1018.8hPa SSW 0.9mph /  1.4km/h 5.0mph /  8km/h 20% 0.00in /  0mm 0.0 W/m2
03:27 74.1 °F /  23.4 °C 30.6 °F /  -0.8 °C 30.09in /  1018.8hPa South 4.0mph /  6.4km/h 4.0mph /  6.4km/h 20% 0.00in /  0mm 0.0 W/m2
03:33 73.9 °F /  23.3 °C 30.4 °F /  -0.9 °C 30.09in /  1018.8hPa South 0.9mph /  1.4km/h 5.0mph /  8km/h 20% 0.00in /  0mm 0.0 W/m2
03:38 73.8 °F /  23.2 °C 28.9 °F /  -1.7 °C 30.09in /  1018.8hPa SSW 2.9mph /  4.7km/h 10.0mph /  16.1km/h 19% 0.00in /  0mm 0.0 W/m2
03:43 73.8 °F /  23.2 °C 28.9 °F /  -1.7 °C 30.09in /  1018.8hPa South 0.9mph /  1.4km/h 8.0mph /  12.9km/h 19% 0.00in /  0mm 0.0 W/m2
03:48 73.9 °F /  23.3 °C 29.1 °F /  -1.6 °C 30.08in /  1018.5hPa South 2.9mph /  4.7km/h 10.0mph /  16.1km/h 19% 0.00in /  0mm 0.0 W/m2
03:53 73.9 °F /  23.3 °C 29.1 °F /  -1.6 °C 30.08in /  1018.5hPa Calm   12.0mph /  19.3km/h 19% 0.00in /  0mm 0.0 W/m2
03:58 73.9 °F /  23.3 °C 29.1 °F /  -1.6 °C 30.08in /  1018.5hPa South 0.9mph /  1.4km/h 5.0mph /  8km/h 19% 0.00in /  0mm 0.0 W/m2
04:03 73.9 °F /  23.3 °C 29.1 °F /  -1.6 °C 30.08in /  1018.5hPa SSW 2.9mph /  4.7km/h 6.0mph /  9.7km/h 19% 0.00in /  0mm 0.0 W/m2
04:09 73.8 °F /  23.2 °C 28.9 °F /  -1.7 °C 30.08in /  1018.5hPa SSW 4.0mph /  6.4km/h 6.0mph /  9.7km/h 19% 0.00in /  0mm 0.0 W/m2
04:14 73.8 °F /  23.2 °C 28.9 °F /  -1.7 °C 30.08in /  1018.5hPa SSE 4.0mph /  6.4km/h 8.0mph /  12.9km/h 19% 0.00in /  0mm 0.0 W/m2
04:19 73.8 °F /  23.2 °C 28.9 °F /  -1.7 °C 30.08in /  1018.5hPa ESE 2.9mph /  4.7km/h 7.0mph /  11.3km/h 19% 0.00in /  0mm 0.0 W/m2
04:24 73.6 °F /  23.1 °C 28.8 °F /  -1.8 °C 30.08in /  1018.5hPa Calm   3.0mph /  4.8km/h 19% 0.00in /  0mm 0.0 W/m2
04:29 73.2 °F /  22.9 °C 29.7 °F /  -1.3 °C 30.08in /  1018.5hPa Calm   1.0mph /  1.6km/h 20% 0.00in /  0mm 0.0 W/m2
04:34 73.0 °F /  22.8 °C 29.7 °F /  -1.3 °C 30.07in /  1018.2hPa Calm   4.0mph /  6.4km/h 20% 0.00in /  0mm 0.0 W/m2
04:39 72.7 °F /  22.6 °C 29.3 °F /  -1.5 °C 30.08in /  1018.5hPa SE 2.9mph /  4.7km/h 4.0mph /  6.4km/h 20% 0.00in /  0mm 0.0 W/m2
04:44 72.3 °F /  22.4 °C 28.9 °F /  -1.7 °C 30.08in /  1018.5hPa SE 4.0mph /  6.4km/h 5.0mph /  8km/h 20% 0.00in /  0mm 0.0 W/m2
04:49 72.7 °F /  22.6 °C 26.8 °F /  -2.9 °C 30.08in /  1018.5hPa SE 4.0mph /  6.4km/h 9.0mph /  14.5km/h 18% 0.00in /  0mm 0.0 W/m2
04:50 72.9 °F /  22.7 °C 27.0 °F /  -2.8 °C 30.08in /  1018.5hPa ESE 6.0mph /  9.7km/h 9.0mph /  14.5km/h 18% 0.00in /  0mm 0.0 W/m2
04:56 73.6 °F /  23.1 °C 27.5 °F /  -2.5 °C 30.08in /  1018.5hPa SE 2.9mph /  4.7km/h 6.0mph /  9.7km/h 18% 0.00in /  0mm 0.0 W/m2
05:01 73.9 °F /  23.3 °C 26.4 °F /  -3.1 °C 30.08in /  1018.5hPa ESE 4.0mph /  6.4km/h 11.0mph /  17.7km/h 17% 0.00in /  0mm 0.0 W/m2
05:05 74.3 °F /  23.5 °C 26.6 °F /  -3 °C 30.07in /  1018.2hPa SE 4.0mph /  6.4km/h 7.0mph /  11.3km/h 17% 0.00in /  0mm 0.0 W/m2
05:07 74.5 °F /  23.6 °C 26.8 °F /  -2.9 °C 30.07in /  1018.2hPa SSE 2.9mph /  4.7km/h 8.0mph /  12.9km/h 17% 0.00in /  0mm 0.0 W/m2
05:11 74.7 °F /  23.7 °C 27.0 °F /  -2.8 °C 30.07in /  1018.2hPa SW 4.9mph /  7.9km/h 6.0mph /  9.7km/h 17% 0.00in /  0mm 0.0 W/m2
05:21 74.8 °F /  23.8 °C 27.1 °F /  -2.7 °C 30.07in /  1018.2hPa South 4.9mph /  7.9km/h 8.0mph /  12.9km/h 17% 0.00in /  0mm 0.0 W/m2
05:26 74.8 °F /  23.8 °C 27.1 °F /  -2.7 °C 30.07in /  1018.2hPa SSE 2.0mph /  3.2km/h 6.0mph /  9.7km/h 17% 0.00in /  0mm 0.0 W/m2
05:27 74.8 °F /  23.8 °C 27.1 °F /  -2.7 °C 30.08in /  1018.5hPa SSE 2.9mph /  4.7km/h 6.0mph /  9.7km/h 17% 0.00in /  0mm 0.0 W/m2
05:30 74.8 °F /  23.8 °C 27.1 °F /  -2.7 °C 30.08in /  1018.5hPa Calm   7.0mph /  11.3km/h 17% 0.00in /  0mm 0.0 W/m2
05:36 74.8 °F /  23.8 °C 27.1 °F /  -2.7 °C 30.08in /  1018.5hPa SE 2.0mph /  3.2km/h 10.0mph /  16.1km/h 17% 0.00in /  0mm 0.0 W/m2
05:41 74.8 °F /  23.8 °C 27.1 °F /  -2.7 °C 30.08in /  1018.5hPa South 4.9mph /  7.9km/h 8.0mph /  12.9km/h 17% 0.00in /  0mm 0.0 W/m2
05:46 74.8 °F /  23.8 °C 27.1 °F /  -2.7 °C 30.08in /  1018.5hPa Calm   5.0mph /  8km/h 17% 0.00in /  0mm 0.0 W/m2
05:51 74.7 °F /  23.7 °C 28.4 °F /  -2 °C 30.09in /  1018.8hPa NW 2.0mph /  3.2km/h 3.0mph /  4.8km/h 18% 0.00in /  0mm 0.0 W/m2
05:54 74.3 °F /  23.5 °C 29.3 °F /  -1.5 °C 30.09in /  1018.8hPa WNW 2.9mph /  4.7km/h 3.0mph /  4.8km/h 19% 0.00in /  0mm 0.0 W/m2
05:59 73.4 °F /  23 °C 29.8 °F /  -1.2 °C 30.10in /  1019.2hPa NW 0.9mph /  1.4km/h 4.0mph /  6.4km/h 20% 0.00in /  0mm 0.0 W/m2
06:05 72.7 °F /  22.6 °C 29.3 °F /  -1.5 °C 30.10in /  1019.2hPa Calm   1.0mph /  1.6km/h 20% 0.00in /  0mm 0.0 W/m2
06:06 72.3 °F /  22.4 °C 28.9 °F /  -1.7 °C 30.10in /  1019.2hPa Calm     20% 0.00in /  0mm 0.0 W/m2
06:11 71.8 °F /  22.1 °C 29.7 °F /  -1.3 °C 30.10in /  1019.2hPa Calm     21% 0.00in /  0mm 5.0 W/m2
06:17 71.2 °F /  21.8 °C 30.4 °F /  -0.9 °C 30.10in /  1019.2hPa NE 2.9mph /  4.7km/h 5.0mph /  8km/h 22% 0.00in /  0mm 7.0 W/m2
06:22 70.9 °F /  21.6 °C 28.9 °F /  -1.7 °C 30.10in /  1019.2hPa ENE 0.9mph /  1.4km/h 5.0mph /  8km/h 21% 0.00in /  0mm 9.0 W/m2
06:27 70.9 °F /  21.6 °C 27.9 °F /  -2.3 °C 30.11in /  1019.5hPa NE 2.9mph /  4.7km/h 7.0mph /  11.3km/h 20% 0.00in /  0mm 11.0 W/m2
06:28 70.9 °F /  21.6 °C 27.9 °F /  -2.3 °C 30.11in /  1019.5hPa Calm   4.0mph /  6.4km/h 20% 0.00in /  0mm 11.0 W/m2
06:34 70.9 °F /  21.6 °C 28.9 °F /  -1.7 °C 30.11in /  1019.5hPa Calm     21% 0.00in /  0mm 12.0 W/m2
06:39 70.7 °F /  21.5 °C 30.0 °F /  -1.1 °C 30.11in /  1019.5hPa Calm   1.0mph /  1.6km/h 22% 0.00in /  0mm 14.0 W/m2
06:44 70.5 °F /  21.4 °C 30.9 °F /  -0.6 °C 30.11in /  1019.5hPa Calm   2.0mph /  3.2km/h 23% 0.00in /  0mm 16.0 W/m2
06:49 70.3 °F /  21.3 °C 30.7 °F /  -0.7 °C 30.11in /  1019.5hPa NE 0.9mph /  1.4km/h 2.0mph /  3.2km/h 23% 0.00in /  0mm 18.0 W/m2
06:54 70.2 °F /  21.2 °C 32.7 °F /  0.4 °C 30.11in /  1019.5hPa Calm   2.0mph /  3.2km/h 25% 0.00in /  0mm 19.0 W/m2
06:59 70.0 °F /  21.1 °C 31.5 °F /  -0.3 °C 30.12in /  1019.9hPa Calm   3.0mph /  4.8km/h 24% 0.00in /  0mm 21.0 W/m2
07:05 70.0 °F /  21.1 °C 33.4 °F /  0.8 °C 30.12in /  1019.9hPa Calm   3.0mph /  4.8km/h 26% 0.00in /  0mm 21.0 W/m2
07:10 69.8 °F /  21 °C 34.3 °F /  1.3 °C 30.12in /  1019.9hPa East 2.0mph /  3.2km/h 2.0mph /  3.2km/h 27% 0.00in /  0mm 23.0 W/m2
07:15 69.6 °F /  20.9 °C 35.1 °F /  1.7 °C 30.12in /  1019.9hPa Calm   1.0mph /  1.6km/h 28% 0.00in /  0mm 25.0 W/m2
07:20 69.8 °F /  21 °C 34.3 °F /  1.3 °C 30.12in /  1019.9hPa Calm     27% 0.00in /  0mm 26.0 W/m2
07:26 70.2 °F /  21.2 °C 36.5 °F /  2.5 °C 30.12in /  1019.9hPa ESE 0.9mph /  1.4km/h 2.0mph /  3.2km/h 29% 0.00in /  0mm 28.0 W/m2
07:31 70.3 °F /  21.3 °C 36.5 °F /  2.5 °C 30.12in /  1019.9hPa ESE 0.9mph /  1.4km/h 2.0mph /  3.2km/h 29% 0.00in /  0mm 28.0 W/m2
07:36 70.7 °F /  21.5 °C 36.0 °F /  2.2 °C 30.12in /  1019.9hPa East 0.9mph /  1.4km/h 2.0mph /  3.2km/h 28% 0.00in /  0mm 30.0 W/m2
07:41 71.1 °F /  21.7 °C 35.4 °F /  1.9 °C 30.12in /  1019.9hPa ESE 0.9mph /  1.4km/h 2.0mph /  3.2km/h 27% 0.00in /  0mm 81.0 W/m2
07:44 71.4 °F /  21.9 °C 33.8 °F /  1 °C 30.13in /  1020.2hPa SE 2.9mph /  4.7km/h 6.0mph /  9.7km/h 25% 0.00in /  0mm 183.0 W/m2
07:50 72.1 °F /  22.3 °C 34.3 °F /  1.3 °C 30.12in /  1019.9hPa Calm   4.0mph /  6.4km/h 25% 0.00in /  0mm 346.0 W/m2
07:51 72.3 °F /  22.4 °C 34.5 °F /  1.4 °C 30.12in /  1019.9hPa ESE 0.9mph /  1.4km/h 3.0mph /  4.8km/h 25% 0.00in /  0mm 348.0 W/m2
07:56 73.2 °F /  22.9 °C 34.3 °F /  1.3 °C 30.12in /  1019.9hPa Calm   4.0mph /  6.4km/h 24% 0.00in /  0mm 376.0 W/m2
08:01 74.5 °F /  23.6 °C 35.2 °F /  1.8 °C 30.12in /  1019.9hPa NE 2.0mph /  3.2km/h 3.0mph /  4.8km/h 24% 0.00in /  0mm 399.0 W/m2
08:06 75.6 °F /  24.2 °C 34.0 °F /  1.1 °C 30.12in /  1019.9hPa East 0.9mph /  1.4km/h 3.0mph /  4.8km/h 22% 0.00in /  0mm 420.0 W/m2
08:14 77.2 °F /  25.1 °C 38.7 °F /  3.7 °C 30.12in /  1019.9hPa Calm   1.0mph /  1.6km/h 25% 0.00in /  0mm 450.0 W/m2
08:20 78.3 °F /  25.7 °C 39.6 °F /  4.2 °C 30.12in /  1019.9hPa Calm   2.0mph /  3.2km/h 25% 0.00in /  0mm 466.0 W/m2
08:26 79.0 °F /  26.1 °C 43.2 °F /  6.2 °C 30.12in /  1019.9hPa SSE 0.9mph /  1.4km/h 2.0mph /  3.2km/h 28% 0.00in /  0mm 494.0 W/m2
08:31 79.3 °F /  26.3 °C 46.0 °F /  7.8 °C 30.12in /  1019.9hPa Calm   1.0mph /  1.6km/h 31% 0.00in /  0mm 513.0 W/m2
08:36 80.1 °F /  26.7 °C 48.4 °F /  9.1 °C 30.12in /  1019.9hPa North 2.0mph /  3.2km/h 4.0mph /  6.4km/h 33% 0.00in /  0mm 527.0 W/m2
08:39 80.4 °F /  26.9 °C 48.7 °F /  9.3 °C 30.12in /  1019.9hPa ENE 2.0mph /  3.2km/h 6.0mph /  9.7km/h 33% 0.00in /  0mm 543.0 W/m2
08:40 80.6 °F /  27 °C 48.9 °F /  9.4 °C 30.12in /  1019.9hPa ENE 4.0mph /  6.4km/h 6.0mph /  9.7km/h 33% 0.00in /  0mm 547.0 W/m2
08:45 81.0 °F /  27.2 °C 48.4 °F /  9.1 °C 30.12in /  1019.9hPa NE 0.9mph /  1.4km/h 5.0mph /  8km/h 32% 0.00in /  0mm 566.0 W/m2
08:50 81.1 °F /  27.3 °C 47.7 °F /  8.7 °C 30.12in /  1019.9hPa Calm   3.0mph /  4.8km/h 31% 0.00in /  0mm 584.0 W/m2
08:55 81.5 °F /  27.5 °C 48.7 °F /  9.3 °C 30.11in /  1019.5hPa Calm   4.0mph /  6.4km/h 32% 0.00in /  0mm 598.0 W/m2
09:00 81.9 °F /  27.7 °C 49.1 °F /  9.5 °C 30.11in /  1019.5hPa Calm   5.0mph /  8km/h 32% 0.00in /  0mm 619.0 W/m2
09:03 82.0 °F /  27.8 °C 50.9 °F /  10.5 °C 30.11in /  1019.5hPa Calm   6.0mph /  9.7km/h 34% 0.00in /  0mm 631.0 W/m2
09:09 82.2 °F /  27.9 °C 51.1 °F /  10.6 °C 30.11in /  1019.5hPa Calm   3.0mph /  4.8km/h 34% 0.00in /  0mm 643.0 W/m2
09:14 82.8 °F /  28.2 °C 54.5 °F /  12.5 °C 30.11in /  1019.5hPa NNE 4.0mph /  6.4km/h 8.0mph /  12.9km/h 38% 0.00in /  0mm 659.0 W/m2
09:19 82.9 °F /  28.3 °C 53.2 °F /  11.8 °C 30.10in /  1019.2hPa Calm   4.0mph /  6.4km/h 36% 0.00in /  0mm 677.0 W/m2
09:24 83.1 °F /  28.4 °C 54.1 °F /  12.3 °C 30.10in /  1019.2hPa NNW 2.0mph /  3.2km/h 7.0mph /  11.3km/h 37% 0.00in /  0mm 700.0 W/m2
09:28 83.5 °F /  28.6 °C 54.5 °F /  12.5 °C 30.10in /  1019.2hPa NW 2.0mph /  3.2km/h 5.0mph /  8km/h 37% 0.00in /  0mm 712.0 W/m2
09:33 84.0 °F /  28.9 °C 54.9 °F /  12.7 °C 30.11in /  1019.5hPa North 4.0mph /  6.4km/h 7.0mph /  11.3km/h 37% 0.00in /  0mm 724.0 W/m2
09:38 84.4 °F /  29.1 °C 55.2 °F /  12.9 °C 30.10in /  1019.2hPa NNW 4.9mph /  7.9km/h 9.0mph /  14.5km/h 37% 0.00in /  0mm 670.0 W/m2
09:39 84.4 °F /  29.1 °C 55.2 °F /  12.9 °C 30.10in /  1019.2hPa NW 2.9mph /  4.7km/h 9.0mph /  14.5km/h 37% 0.00in /  0mm 747.0 W/m2
09:44 84.6 °F /  29.2 °C 55.4 °F /  13 °C 30.10in /  1019.2hPa NNE 4.9mph /  7.9km/h 5.0mph /  8km/h 37% 0.00in /  0mm 773.0 W/m2
09:50 84.7 °F /  29.3 °C 54.9 °F /  12.7 °C 30.10in /  1019.2hPa North 0.9mph /  1.4km/h 9.0mph /  14.5km/h 36% 0.00in /  0mm 817.0 W/m2
09:55 85.1 °F /  29.5 °C 55.2 °F /  12.9 °C 30.10in /  1019.2hPa NE 6.9mph /  11.1km/h 7.0mph /  11.3km/h 36% 0.00in /  0mm 886.0 W/m2
09:59 85.5 °F /  29.7 °C 54.7 °F /  12.6 °C 30.10in /  1019.2hPa NE 6.9mph /  11.1km/h 9.0mph /  14.5km/h 35% 0.00in /  0mm 884.0 W/m2
10:04 85.8 °F /  29.9 °C 54.1 °F /  12.3 °C 30.10in /  1019.2hPa East 8.1mph /  13km/h 11.0mph /  17.7km/h 34% 0.00in /  0mm 916.0 W/m2
10:09 86.0 °F /  30 °C 55.2 °F /  12.9 °C 30.10in /  1019.2hPa NNE 2.0mph /  3.2km/h 7.0mph /  11.3km/h 35% 0.00in /  0mm 914.0 W/m2
10:14 86.5 °F /  30.3 °C 54.9 °F /  12.7 °C 30.10in /  1019.2hPa North 6.9mph /  11.1km/h 9.0mph /  14.5km/h 34% 0.00in /  0mm 916.0 W/m2
10:19 87.1 °F /  30.6 °C 55.2 °F /  12.9 °C 30.10in /  1019.2hPa NNW 6.0mph /  9.7km/h 7.0mph /  11.3km/h 34% 0.00in /  0mm 947.0 W/m2
10:24 87.1 °F /  30.6 °C 55.2 °F /  12.9 °C 30.10in /  1019.2hPa NNW 6.0mph /  9.7km/h 8.0mph /  12.9km/h 34% 0.00in /  0mm 977.0 W/m2
10:28 86.9 °F /  30.5 °C 55.2 °F /  12.9 °C 30.10in /  1019.2hPa NE 4.9mph /  7.9km/h 10.0mph /  16.1km/h 34% 0.00in /  0mm 947.0 W/m2
10:34 87.1 °F /  30.6 °C 53.6 °F /  12 °C 30.10in /  1019.2hPa NNW 4.0mph /  6.4km/h 9.0mph /  14.5km/h 32% 0.00in /  0mm 1028.0 W/m2
10:40 86.7 °F /  30.4 °C 55.0 °F /  12.8 °C 30.10in /  1019.2hPa East 8.9mph /  14.3km/h 13.0mph /  20.9km/h 34% 0.00in /  0mm 1025.0 W/m2
10:45 86.7 °F /  30.4 °C 53.4 °F /  11.9 °C 30.10in /  1019.2hPa NNE 4.9mph /  7.9km/h 8.0mph /  12.9km/h 32% 0.00in /  0mm 977.0 W/m2
10:50 86.9 °F /  30.5 °C 52.7 °F /  11.5 °C 30.10in /  1019.2hPa ENE 6.9mph /  11.1km/h 10.0mph /  16.1km/h 31% 0.00in /  0mm 981.0 W/m2
10:55 87.1 °F /  30.6 °C 53.6 °F /  12 °C 30.10in /  1019.2hPa North 6.0mph /  9.7km/h 8.0mph /  12.9km/h 32% 0.00in /  0mm 1013.0 W/m2
11:00 87.4 °F /  30.8 °C 54.0 °F /  12.2 °C 30.10in /  1019.2hPa NE 2.9mph /  4.7km/h 7.0mph /  11.3km/h 32% 0.00in /  0mm 1102.0 W/m2
11:05 87.6 °F /  30.9 °C 53.2 °F /  11.8 °C 30.10in /  1019.2hPa NNE 4.0mph /  6.4km/h 9.0mph /  14.5km/h 31% 0.00in /  0mm 598.0 W/m2
11:10 87.6 °F /  30.9 °C 54.1 °F /  12.3 °C 30.09in /  1018.8hPa NW 4.0mph /  6.4km/h 6.0mph /  9.7km/h 32% 0.00in /  0mm 1079.0 W/m2
11:15 88.0 °F /  31.1 °C 54.5 °F /  12.5 °C 30.09in /  1018.8hPa NNE 6.9mph /  11.1km/h 10.0mph /  16.1km/h 32% 0.00in /  0mm 415.0 W/m2
11:20 87.3 °F /  30.7 °C 52.9 °F /  11.6 °C 30.09in /  1018.8hPa NNE 4.0mph /  6.4km/h 12.0mph /  19.3km/h 31% 0.00in /  0mm 188.0 W/m2
11:22 86.7 °F /  30.4 °C 52.5 °F /  11.4 °C 30.09in /  1018.8hPa NNW 4.0mph /  6.4km/h 8.0mph /  12.9km/h 31% 0.00in /  0mm 213.0 W/m2
11:28 86.2 °F /  30.1 °C 53.8 °F /  12.1 °C 30.09in /  1018.8hPa NNW 2.9mph /  4.7km/h 7.0mph /  11.3km/h 33% 0.00in /  0mm 1151.0 W/m2
11:29 86.2 °F /  30.1 °C 53.8 °F /  12.1 °C 30.09in /  1018.8hPa NE 6.0mph /  9.7km/h 7.0mph /  11.3km/h 33% 0.00in /  0mm 1174.0 W/m2
11:34 86.9 °F /  30.5 °C 54.3 °F /  12.4 °C 30.09in /  1018.8hPa North 6.0mph /  9.7km/h 12.0mph /  19.3km/h 33% 0.00in /  0mm 1148.0 W/m2
11:39 87.6 °F /  30.9 °C 53.2 °F /  11.8 °C 30.09in /  1018.8hPa Calm   11.0mph /  17.7km/h 31% 0.00in /  0mm 313.0 W/m2
11:41 87.8 °F /  31 °C 53.4 °F /  11.9 °C 30.09in /  1018.8hPa NNW 6.0mph /  9.7km/h 8.0mph /  12.9km/h 31% 0.00in /  0mm 313.0 W/m2
11:46 88.2 °F /  31.2 °C 53.8 °F /  12.1 °C 30.08in /  1018.5hPa West 2.0mph /  3.2km/h 4.0mph /  6.4km/h 31% 0.00in /  0mm 218.0 W/m2
11:51 87.6 °F /  30.9 °C 54.1 °F /  12.3 °C 30.09in /  1018.8hPa North 4.0mph /  6.4km/h 11.0mph /  17.7km/h 32% 0.00in /  0mm 346.0 W/m2
11:56 87.4 °F /  30.8 °C 54.0 °F /  12.2 °C 30.08in /  1018.5hPa East 4.0mph /  6.4km/h 5.0mph /  8km/h 32% 0.00in /  0mm 237.0 W/m2
11:58 87.3 °F /  30.7 °C 53.8 °F /  12.1 °C 30.08in /  1018.5hPa North 6.9mph /  11.1km/h 9.0mph /  14.5km/h 32% 0.00in /  0mm 209.0 W/m2
12:03 86.7 °F /  30.4 °C 53.4 °F /  11.9 °C 30.08in /  1018.5hPa NNW 4.0mph /  6.4km/h 8.0mph /  12.9km/h 32% 0.00in /  0mm 1178.0 W/m2
12:08 86.7 °F /  30.4 °C 53.4 °F /  11.9 °C 30.08in /  1018.5hPa North 2.0mph /  3.2km/h 6.0mph /  9.7km/h 32% 0.00in /  0mm 255.0 W/m2
12:13 87.1 °F /  30.6 °C 53.6 °F /  12 °C 30.08in /  1018.5hPa NNW 2.0mph /  3.2km/h 2.0mph /  3.2km/h 32% 0.00in /  0mm 1216.0 W/m2
12:18 88.0 °F /  31.1 °C 52.7 °F /  11.5 °C 30.08in /  1018.5hPa NNW 6.0mph /  9.7km/h 8.0mph /  12.9km/h 30% 0.00in /  0mm 1225.0 W/m2
12:24 88.5 °F /  31.4 °C 51.3 °F /  10.7 °C 30.08in /  1018.5hPa NNE 6.9mph /  11.1km/h 9.0mph /  14.5km/h 28% 0.00in /  0mm 1202.0 W/m2
12:29 89.2 °F /  31.8 °C 50.9 °F /  10.5 °C 30.07in /  1018.2hPa North 10.1mph /  16.3km/h 10.1mph /  16.3km/h 27% 0.00in /  0mm 1162.0 W/m2
12:35 90.1 °F /  32.3 °C 51.6 °F /  10.9 °C 30.07in /  1018.2hPa SE 2.0mph /  3.2km/h 5.0mph /  8km/h 27% 0.00in /  0mm 1134.0 W/m2
12:40 91.0 °F /  32.8 °C 51.4 °F /  10.8 °C 30.07in /  1018.2hPa NNW 2.0mph /  3.2km/h 5.0mph /  8km/h 26% 0.00in /  0mm 1130.0 W/m2
12:45 91.2 °F /  32.9 °C 50.5 °F /  10.3 °C 30.06in /  1017.8hPa NNW 0.9mph /  1.4km/h 9.0mph /  14.5km/h 25% 0.00in /  0mm 1092.0 W/m2
12:50 91.6 °F /  33.1 °C 50.7 °F /  10.4 °C 30.07in /  1018.2hPa North 0.9mph /  1.4km/h 10.0mph /  16.1km/h 25% 0.00in /  0mm 1092.0 W/m2
12:55 91.4 °F /  33 °C 49.5 °F /  9.7 °C 30.06in /  1017.8hPa SE 2.9mph /  4.7km/h 6.0mph /  9.7km/h 24% 0.00in /  0mm 1097.0 W/m2
13:00 91.6 °F /  33.1 °C 49.6 °F /  9.8 °C 30.06in /  1017.8hPa North 2.9mph /  4.7km/h 5.0mph /  8km/h 24% 0.00in /  0mm 1095.0 W/m2
13:05 92.1 °F /  33.4 °C 48.9 °F /  9.4 °C 30.05in /  1017.5hPa NW 4.0mph /  6.4km/h 4.0mph /  6.4km/h 23% 0.00in /  0mm 1104.0 W/m2
13:10 92.5 °F /  33.6 °C 50.4 °F /  10.2 °C 30.05in /  1017.5hPa WSW 0.9mph /  1.4km/h 5.0mph /  8km/h 24% 0.00in /  0mm 1114.0 W/m2
13:16 92.8 °F /  33.8 °C 49.6 °F /  9.8 °C 30.05in /  1017.5hPa NE 2.9mph /  4.7km/h 8.0mph /  12.9km/h 23% 0.00in /  0mm 1118.0 W/m2
13:26 93.0 °F /  33.9 °C 49.8 °F /  9.9 °C 30.05in /  1017.5hPa Calm   3.0mph /  4.8km/h 23% 0.00in /  0mm 1165.0 W/m2
13:31 93.6 °F /  34.2 °C 48.9 °F /  9.4 °C 30.04in /  1017.2hPa North 4.9mph /  7.9km/h 8.0mph /  12.9km/h 22% 0.00in /  0mm 1127.0 W/m2
13:33 93.7 °F /  34.3 °C 49.1 °F /  9.5 °C 30.04in /  1017.2hPa Calm   4.0mph /  6.4km/h 22% 0.00in /  0mm 1157.0 W/m2
13:38 94.3 °F /  34.6 °C 48.4 °F /  9.1 °C 30.04in /  1017.2hPa NNE 0.9mph /  1.4km/h 5.0mph /  8km/h 21% 0.00in /  0mm 1181.0 W/m2
13:43 94.6 °F /  34.8 °C 49.8 °F /  9.9 °C 30.04in /  1017.2hPa NE 4.0mph /  6.4km/h 7.0mph /  11.3km/h 22% 0.00in /  0mm 1172.0 W/m2
13:48 93.9 °F /  34.4 °C 48.0 °F /  8.9 °C 30.04in /  1017.2hPa NNW 4.0mph /  6.4km/h 10.0mph /  16.1km/h 21% 0.00in /  0mm 213.0 W/m2
13:50 93.4 °F /  34.1 °C 47.7 °F /  8.7 °C 30.03in /  1016.8hPa WNW 0.9mph /  1.4km/h 10.0mph /  16.1km/h 21% 0.00in /  0mm 218.0 W/m2
13:55 92.1 °F /  33.4 °C 48.9 °F /  9.4 °C 30.03in /  1016.8hPa NNW 2.9mph /  4.7km/h 6.0mph /  9.7km/h 23% 0.00in /  0mm 1121.0 W/m2
14:01 92.5 °F /  33.6 °C 49.3 °F /  9.6 °C 30.03in /  1016.8hPa West 2.9mph /  4.7km/h 4.0mph /  6.4km/h 23% 0.00in /  0mm 1062.0 W/m2
14:06 93.2 °F /  34 °C 49.8 °F /  9.9 °C 30.03in /  1016.8hPa NNW 4.9mph /  7.9km/h 11.0mph /  17.7km/h 23% 0.00in /  0mm 339.0 W/m2
14:12 92.7 °F /  33.7 °C 49.5 °F /  9.7 °C 30.02in /  1016.5hPa North 4.0mph /  6.4km/h 10.0mph /  16.1km/h 23% 0.00in /  0mm 350.0 W/m2
14:17 92.7 °F /  33.7 °C 49.5 °F /  9.7 °C 30.02in /  1016.5hPa West 0.9mph /  1.4km/h 8.0mph /  12.9km/h 23% 0.00in /  0mm 1194.0 W/m2
14:22 92.7 °F /  33.7 °C 48.2 °F /  9 °C 30.02in /  1016.5hPa SSW 2.0mph /  3.2km/h 8.0mph /  12.9km/h 22% 0.00in /  0mm 272.0 W/m2
14:27 91.6 °F /  33.1 °C 48.6 °F /  9.2 °C 30.02in /  1016.5hPa West 6.0mph /  9.7km/h 7.0mph /  11.3km/h 23% 0.00in /  0mm 244.0 W/m2
14:32 91.0 °F /  32.8 °C 49.3 °F /  9.6 °C 30.02in /  1016.5hPa NNE 0.9mph /  1.4km/h 7.0mph /  11.3km/h 24% 0.00in /  0mm 186.0 W/m2
14:37 90.7 °F /  32.6 °C 48.9 °F /  9.4 °C 30.02in /  1016.5hPa NNW 2.9mph /  4.7km/h 9.0mph /  14.5km/h 24% 0.00in /  0mm 135.0 W/m2
14:42 90.3 °F /  32.4 °C 50.7 °F /  10.4 °C 30.02in /  1016.5hPa SSE 2.0mph /  3.2km/h 4.0mph /  6.4km/h 26% 0.00in /  0mm 91.0 W/m2
14:48 89.8 °F /  32.1 °C 50.4 °F /  10.2 °C 30.03in /  1016.8hPa Calm   4.0mph /  6.4km/h 26% 0.00in /  0mm 47.0 W/m2
14:53 89.1 °F /  31.7 °C 50.7 °F /  10.4 °C 30.03in /  1016.8hPa WSW 8.1mph /  13km/h 9.0mph /  14.5km/h 27% 0.00in /  0mm 35.0 W/m2
14:58 87.4 °F /  30.8 °C 51.3 °F /  10.7 °C 30.03in /  1016.8hPa South 2.9mph /  4.7km/h 7.0mph /  11.3km/h 29% 0.00in /  0mm 26.0 W/m2
15:03 85.8 °F /  29.9 °C 53.4 °F /  11.9 °C 30.04in /  1017.2hPa East 2.9mph /  4.7km/h 17.0mph /  27.4km/h 33% 0.00in /  0mm 23.0 W/m2
15:08 84.0 °F /  28.9 °C 55.8 °F /  13.2 °C 30.04in /  1017.2hPa SSE 4.9mph /  7.9km/h 16.0mph /  25.7km/h 38% 0.00in /  0mm 23.0 W/m2
15:13 82.0 °F /  27.8 °C 57.4 °F /  14.1 °C 30.04in /  1017.2hPa East 12.1mph /  19.5km/h 18.0mph /  29km/h 43% 0.00in /  0mm 23.0 W/m2
15:14 81.3 °F /  27.4 °C 56.7 °F /  13.7 °C 30.05in /  1017.5hPa ESE 17.0mph /  27.4km/h 18.0mph /  29km/h 43% 0.00in /  0mm 23.0 W/m2
15:19 78.3 °F /  25.7 °C 59.7 °F /  15.4 °C 30.05in /  1017.5hPa East 14.1mph /  22.7km/h 19.0mph /  30.6km/h 53% 0.03in /  0.76mm 23.0 W/m2
15:24 74.3 °F /  23.5 °C 57.6 °F /  14.2 °C 30.05in /  1017.5hPa East 12.1mph /  19.5km/h 16.0mph /  25.7km/h 56% 0.06in /  1.52mm 26.0 W/m2
15:29 72.1 °F /  22.3 °C 58.5 °F /  14.7 °C 30.05in /  1017.5hPa East 8.9mph /  14.3km/h 15.0mph /  24.1km/h 62% 0.06in /  1.52mm 25.0 W/m2
15:34 70.2 °F /  21.2 °C 57.4 °F /  14.1 °C 30.04in /  1017.2hPa ESE 8.9mph /  14.3km/h 11.0mph /  17.7km/h 64% 0.07in /  1.78mm 23.0 W/m2
15:39 69.1 °F /  20.6 °C 56.8 °F /  13.8 °C 30.04in /  1017.2hPa ESE 6.0mph /  9.7km/h 13.0mph /  20.9km/h 65% 0.07in /  1.78mm 23.0 W/m2
15:44 68.7 °F /  20.4 °C 59.4 °F /  15.2 °C 30.03in /  1016.8hPa North 0.9mph /  1.4km/h 4.0mph /  6.4km/h 72% 0.07in /  1.78mm 23.0 W/m2
15:49 68.5 °F /  20.3 °C 57.9 °F /  14.4 °C 30.03in /  1016.8hPa ESE 0.9mph /  1.4km/h 7.0mph /  11.3km/h 69% 0.07in /  1.78mm 21.0 W/m2
15:55 68.7 °F /  20.4 °C 55.2 °F /  12.9 °C 30.02in /  1016.5hPa ESE 4.0mph /  6.4km/h 6.0mph /  9.7km/h 62% 0.07in /  1.78mm 19.0 W/m2
16:00 69.3 °F /  20.7 °C 56.5 °F /  13.6 °C 30.03in /  1016.8hPa SE 0.9mph /  1.4km/h 5.0mph /  8km/h 64% 0.07in /  1.78mm 18.0 W/m2
16:05 69.6 °F /  20.9 °C 57.7 °F /  14.3 °C 30.04in /  1017.2hPa SSW 2.0mph /  3.2km/h 7.0mph /  11.3km/h 66% 0.07in /  1.78mm 14.0 W/m2
16:10 70.0 °F /  21.1 °C 58.5 °F /  14.7 °C 30.06in /  1017.8hPa WSW 2.9mph /  4.7km/h 5.0mph /  8km/h 67% 0.07in /  1.78mm 12.0 W/m2
16:11 70.0 °F /  21.1 °C 56.8 °F /  13.8 °C 30.06in /  1017.8hPa SSW 2.0mph /  3.2km/h 4.0mph /  6.4km/h 63% 0.07in /  1.78mm 11.0 W/m2
16:16 70.0 °F /  21.1 °C 56.3 °F /  13.5 °C 30.07in /  1018.2hPa WSW 0.9mph /  1.4km/h 1.0mph /  1.6km/h 62% 0.07in /  1.78mm 9.0 W/m2
16:21 70.0 °F /  21.1 °C 58.1 °F /  14.5 °C 30.08in /  1018.5hPa Calm   2.0mph /  3.2km/h 66% 0.02in /  0.51mm 9.0 W/m2
16:27 70.0 °F /  21.1 °C 57.2 °F /  14 °C 30.09in /  1018.8hPa Calm   2.0mph /  3.2km/h 64% 0.01in /  0.25mm 9.0 W/m2
16:32 70.0 °F /  21.1 °C 56.8 °F /  13.8 °C 30.09in /  1018.8hPa Calm     63% 0.01in /  0.25mm 9.0 W/m2
16:33 70.2 °F /  21.2 °C 57.4 °F /  14.1 °C 30.10in /  1019.2hPa Calm     64% 0.01in /  0.25mm 9.0 W/m2
16:38 70.3 °F /  21.3 °C 58.8 °F /  14.9 °C 30.10in /  1019.2hPa West 6.0mph /  9.7km/h 7.0mph /  11.3km/h 67% 0.01in /  0.25mm 7.0 W/m2
16:43 70.2 °F /  21.2 °C 58.6 °F /  14.8 °C 30.10in /  1019.2hPa Calm   4.0mph /  6.4km/h 67% 0.02in /  0.51mm 7.0 W/m2
16:48 69.6 °F /  20.9 °C 59.0 °F /  15 °C 30.10in /  1019.2hPa NW 2.9mph /  4.7km/h 3.0mph /  4.8km/h 69% 0.02in /  0.51mm 9.0 W/m2
16:49 69.4 °F /  20.8 °C 59.2 °F /  15.1 °C 30.10in /  1019.2hPa NNW 2.0mph /  3.2km/h 4.0mph /  6.4km/h 70% 0.02in /  0.51mm 9.0 W/m2
16:54 68.7 °F /  20.4 °C 60.1 °F /  15.6 °C 30.10in /  1019.2hPa North 0.9mph /  1.4km/h 2.0mph /  3.2km/h 74% 0.02in /  0.51mm 9.0 W/m2
16:59 68.4 °F /  20.2 °C 60.1 °F /  15.6 °C 30.10in /  1019.2hPa Calm   1.0mph /  1.6km/h 75% 0.02in /  0.51mm 9.0 W/m2
17:04 68.0 °F /  20 °C 60.1 °F /  15.6 °C 30.10in /  1019.2hPa NW 0.9mph /  1.4km/h 4.0mph /  6.4km/h 76% 0.02in /  0.51mm 9.0 W/m2
17:10 67.8 °F /  19.9 °C 60.3 °F /  15.7 °C 30.10in /  1019.2hPa Calm   3.0mph /  4.8km/h 77% 0.02in /  0.51mm 9.0 W/m2
17:15 67.8 °F /  19.9 °C 61.0 °F /  16.1 °C 30.10in /  1019.2hPa NNE 2.0mph /  3.2km/h 3.0mph /  4.8km/h 79% 0.03in /  0.76mm 7.0 W/m2
17:20 67.5 °F /  19.7 °C 60.8 °F /  16 °C 30.09in /  1018.8hPa NNE 6.9mph /  11.1km/h 8.0mph /  12.9km/h 79% 0.03in /  0.76mm 7.0 W/m2
17:25 67.3 °F /  19.6 °C 59.5 °F /  15.3 °C 30.09in /  1018.8hPa NE 2.9mph /  4.7km/h 10.0mph /  16.1km/h 76% 0.04in /  1.02mm 7.0 W/m2
17:30 67.3 °F /  19.6 °C 60.3 °F /  15.7 °C 30.09in /  1018.8hPa NE 0.9mph /  1.4km/h 8.0mph /  12.9km/h 78% 0.04in /  1.02mm 9.0 W/m2
17:33 66.9 °F /  19.4 °C 59.5 °F /  15.3 °C 30.09in /  1018.8hPa NE 6.9mph /  11.1km/h 9.0mph /  14.5km/h 77% 0.04in /  1.02mm 9.0 W/m2
17:38 66.9 °F /  19.4 °C 60.3 °F /  15.7 °C 30.09in /  1018.8hPa Calm   4.0mph /  6.4km/h 79% 0.03in /  0.76mm 11.0 W/m2
17:43 66.7 °F /  19.3 °C 60.4 °F /  15.8 °C 30.11in /  1019.5hPa ESE 2.9mph /  4.7km/h 6.0mph /  9.7km/h 80% 0.02in /  0.51mm 12.0 W/m2
17:48 66.6 °F /  19.2 °C 60.3 °F /  15.7 °C 30.10in /  1019.2hPa ENE 4.9mph /  7.9km/h 8.0mph /  12.9km/h 80% 0.02in /  0.51mm 14.0 W/m2
17:53 66.6 °F /  19.2 °C 60.3 °F /  15.7 °C 30.10in /  1019.2hPa ESE 4.0mph /  6.4km/h 10.0mph /  16.1km/h 80% 0.03in /  0.76mm 16.0 W/m2
17:59 66.4 °F /  19.1 °C 59.7 °F /  15.4 °C 30.10in /  1019.2hPa ENE 6.0mph /  9.7km/h 10.0mph /  16.1km/h 79% 0.02in /  0.51mm 21.0 W/m2
18:04 66.2 °F /  19 °C 59.2 °F /  15.1 °C 30.10in /  1019.2hPa NE 4.0mph /  6.4km/h 9.0mph /  14.5km/h 78% 0.02in /  0.51mm 28.0 W/m2
18:10 66.4 °F /  19.1 °C 58.6 °F /  14.8 °C 30.12in /  1019.9hPa SE 6.0mph /  9.7km/h 7.0mph /  11.3km/h 76% 0.02in /  0.51mm 28.0 W/m2
18:15 66.4 °F /  19.1 °C 58.6 °F /  14.8 °C 30.12in /  1019.9hPa SE 4.0mph /  6.4km/h 8.0mph /  12.9km/h 76% 0.02in /  0.51mm 25.0 W/m2
18:20 66.6 °F /  19.2 °C 58.8 °F /  14.9 °C 30.12in /  1019.9hPa ESE 6.0mph /  9.7km/h 7.0mph /  11.3km/h 76% 0.02in /  0.51mm 23.0 W/m2
18:25 66.7 °F /  19.3 °C 58.1 °F /  14.5 °C 30.12in /  1019.9hPa SSE 4.0mph /  6.4km/h 6.0mph /  9.7km/h 74% 0.01in /  0.25mm 19.0 W/m2
18:29 66.9 °F /  19.4 °C 58.8 °F /  14.9 °C 30.12in /  1019.9hPa ENE 4.9mph /  7.9km/h 7.0mph /  11.3km/h 75% 0.01in /  0.25mm 21.0 W/m2
18:34 66.9 °F /  19.4 °C 59.9 °F /  15.5 °C 30.11in /  1019.5hPa ENE 2.9mph /  4.7km/h 6.0mph /  9.7km/h 78% 0.01in /  0.25mm 58.0 W/m2
18:36 66.9 °F /  19.4 °C 59.9 °F /  15.5 °C 30.11in /  1019.5hPa ESE 0.9mph /  1.4km/h 5.0mph /  8km/h 78% 0.02in /  0.51mm 28.0 W/m2
18:41 66.6 °F /  19.2 °C 59.2 °F /  15.1 °C 30.11in /  1019.5hPa Calm   7.0mph /  11.3km/h 77% 0.02in /  0.51mm 26.0 W/m2
18:46 66.6 °F /  19.2 °C 60.3 °F /  15.7 °C 30.10in /  1019.2hPa ENE 4.0mph /  6.4km/h 7.0mph /  11.3km/h 80% 0.02in /  0.51mm 39.0 W/m2
18:52 66.6 °F /  19.2 °C 58.8 °F /  14.9 °C 30.08in /  1018.5hPa North 4.0mph /  6.4km/h 8.0mph /  12.9km/h 76% 0.01in /  0.25mm 58.0 W/m2
18:57 66.9 °F /  19.4 °C 58.3 °F /  14.6 °C 30.08in /  1018.5hPa NE 6.0mph /  9.7km/h 11.0mph /  17.7km/h 74% 0.01in /  0.25mm 76.0 W/m2
19:02 67.3 °F /  19.6 °C 57.9 °F /  14.4 °C 30.08in /  1018.5hPa East 4.0mph /  6.4km/h 7.0mph /  11.3km/h 72% 0.01in /  0.25mm 86.0 W/m2
19:07 67.5 °F /  19.7 °C 60.1 °F /  15.6 °C 30.10in /  1019.2hPa ENE 4.0mph /  6.4km/h 14.0mph /  22.5km/h 77% 0.01in /  0.25mm 97.0 W/m2
19:12 67.8 °F /  19.9 °C 57.7 °F /  14.3 °C 30.10in /  1019.2hPa ENE 0.9mph /  1.4km/h 5.0mph /  8km/h 70% 0.01in /  0.25mm 76.0 W/m2
19:18 68.0 °F /  20 °C 57.0 °F /  13.9 °C 30.11in /  1019.5hPa NNW 2.9mph /  4.7km/h 7.0mph /  11.3km/h 68% 0.01in /  0.25mm 40.0 W/m2
19:23 68.4 °F /  20.2 °C 57.7 °F /  14.3 °C 30.12in /  1019.9hPa NNW 2.9mph /  4.7km/h 6.0mph /  9.7km/h 69% 0.01in /  0.25mm 26.0 W/m2
19:28 68.4 °F /  20.2 °C 57.4 °F /  14.1 °C 30.11in /  1019.5hPa Calm     68% 0.01in /  0.25mm 16.0 W/m2
19:32 68.4 °F /  20.2 °C 57.7 °F /  14.3 °C 30.12in /  1019.9hPa Calm   1.0mph /  1.6km/h 69% 0.01in /  0.25mm 12.0 W/m2
19:38 68.2 °F /  20.1 °C 57.6 °F /  14.2 °C 30.12in /  1019.9hPa Calm   1.0mph /  1.6km/h 69% 0.00in /  0mm 7.0 W/m2
19:42 68.0 °F /  20 °C 58.3 °F /  14.6 °C 30.12in /  1019.9hPa NE 0.9mph /  1.4km/h 1.0mph /  1.6km/h 71% 0.00in /  0mm 0.0 W/m2
19:47 67.8 °F /  19.9 °C 58.5 °F /  14.7 °C 30.13in /  1020.2hPa Calm   1.0mph /  1.6km/h 72% 0.00in /  0mm 0.0 W/m2
19:52 67.6 °F /  19.8 °C 58.3 °F /  14.6 °C 30.13in /  1020.2hPa NE 0.9mph /  1.4km/h 2.0mph /  3.2km/h 72% 0.00in /  0mm 0.0 W/m2
19:57 67.6 °F /  19.8 °C 58.3 °F /  14.6 °C 30.13in /  1020.2hPa Calm   3.0mph /  4.8km/h 72% 0.00in /  0mm 0.0 W/m2
20:07 67.5 °F /  19.7 °C 58.1 °F /  14.5 °C 30.13in /  1020.2hPa Calm   1.0mph /  1.6km/h 72% 0.00in /  0mm 0.0 W/m2
20:12 67.3 °F /  19.6 °C 57.6 °F /  14.2 °C 30.13in /  1020.2hPa Calm     71% 0.00in /  0mm 0.0 W/m2
20:17 67.1 °F /  19.5 °C 57.7 °F /  14.3 °C 30.13in /  1020.2hPa Calm     72% 0.00in /  0mm 0.0 W/m2
20:22 66.9 °F /  19.4 °C 58.3 °F /  14.6 °C 30.13in /  1020.2hPa Calm     74% 0.00in /  0mm 0.0 W/m2
20:28 66.7 °F /  19.3 °C 58.1 °F /  14.5 °C 30.13in /  1020.2hPa Calm     74% 0.00in /  0mm 0.0 W/m2
20:33 66.6 °F /  19.2 °C 58.5 °F /  14.7 °C 30.13in /  1020.2hPa Calm   1.0mph /  1.6km/h 75% 0.00in /  0mm 0.0 W/m2
20:38 66.6 °F /  19.2 °C 58.5 °F /  14.7 °C 30.13in /  1020.2hPa SSE 0.9mph /  1.4km/h 1.0mph /  1.6km/h 75% 0.00in /  0mm 0.0 W/m2
20:39 66.6 °F /  19.2 °C 58.5 °F /  14.7 °C 30.13in /  1020.2hPa Calm   3.0mph /  4.8km/h 75% 0.00in /  0mm 0.0 W/m2
20:44 66.6 °F /  19.2 °C 58.8 °F /  14.9 °C 30.13in /  1020.2hPa Calm   1.0mph /  1.6km/h 76% 0.00in /  0mm 0.0 W/m2
20:45 66.6 °F /  19.2 °C 58.8 °F /  14.9 °C 30.14in /  1020.5hPa Calm   1.0mph /  1.6km/h 76% 0.00in /  0mm 0.0 W/m2
20:50 66.4 °F /  19.1 °C 58.3 °F /  14.6 °C 30.14in /  1020.5hPa SE 0.9mph /  1.4km/h 3.0mph /  4.8km/h 75% 0.00in /  0mm 0.0 W/m2
20:53 66.4 °F /  19.1 °C 57.9 °F /  14.4 °C 30.14in /  1020.5hPa SE 0.9mph /  1.4km/h 2.0mph /  3.2km/h 74% 0.00in /  0mm 0.0 W/m2
20:58 66.4 °F /  19.1 °C 57.4 °F /  14.1 °C 30.14in /  1020.5hPa Calm   1.0mph /  1.6km/h 73% 0.00in /  0mm 0.0 W/m2
21:04 66.6 °F /  19.2 °C 58.1 °F /  14.5 °C 30.14in /  1020.5hPa Calm   1.0mph /  1.6km/h 74% 0.00in /  0mm 0.0 W/m2
21:09 66.6 °F /  19.2 °C 58.5 °F /  14.7 °C 30.14in /  1020.5hPa Calm   1.0mph /  1.6km/h 75% 0.00in /  0mm 0.0 W/m2
21:14 66.6 °F /  19.2 °C 58.1 °F /  14.5 °C 30.14in /  1020.5hPa SE 4.0mph /  6.4km/h 4.0mph /  6.4km/h 74% 0.00in /  0mm 0.0 W/m2
21:19 66.4 °F /  19.1 °C 57.9 °F /  14.4 °C 30.14in /  1020.5hPa Calm     74% 0.00in /  0mm 0.0 W/m2
21:24 66.4 °F /  19.1 °C 58.6 °F /  14.8 °C 30.14in /  1020.5hPa Calm     76% 0.00in /  0mm 0.0 W/m2
21:29 66.2 °F /  19 °C 58.5 °F /  14.7 °C 30.14in /  1020.5hPa Calm   3.0mph /  4.8km/h 76% 0.00in /  0mm 0.0 W/m2
21:30 66.2 °F /  19 °C 58.5 °F /  14.7 °C 30.14in /  1020.5hPa SSE 0.9mph /  1.4km/h 4.0mph /  6.4km/h 76% 0.00in /  0mm 0.0 W/m2
21:36 66.0 °F /  18.9 °C 57.9 °F /  14.4 °C 30.14in /  1020.5hPa SE 2.0mph /  3.2km/h 3.0mph /  4.8km/h 75% 0.00in /  0mm 0.0 W/m2
21:41 66.0 °F /  18.9 °C 57.9 °F /  14.4 °C 30.14in /  1020.5hPa Calm   2.0mph /  3.2km/h 75% 0.00in /  0mm 0.0 W/m2
21:46 66.0 °F /  18.9 °C 58.3 °F /  14.6 °C 30.14in /  1020.5hPa Calm   1.0mph /  1.6km/h 76% 0.00in /  0mm 0.0 W/m2
21:54 65.8 °F /  18.8 °C 58.1 °F /  14.5 °C 30.14in /  1020.5hPa Calm     76% 0.00in /  0mm 0.0 W/m2
21:59 65.7 °F /  18.7 °C 57.9 °F /  14.4 °C 30.14in /  1020.5hPa Calm   1.0mph /  1.6km/h 76% 0.00in /  0mm 0.0 W/m2
22:04 65.7 °F /  18.7 °C 57.9 °F /  14.4 °C 30.15in /  1020.9hPa Calm   1.0mph /  1.6km/h 76% 0.00in /  0mm 0.0 W/m2
22:09 65.5 °F /  18.6 °C 57.7 °F /  14.3 °C 30.15in /  1020.9hPa Calm     76% 0.00in /  0mm 0.0 W/m2
22:14 65.3 °F /  18.5 °C 57.6 °F /  14.2 °C 30.15in /  1020.9hPa Calm     76% 0.00in /  0mm 0.0 W/m2
22:19 65.1 °F /  18.4 °C 57.7 °F /  14.3 °C 30.15in /  1020.9hPa Calm     77% 0.00in /  0mm 0.0 W/m2
22:24 65.1 °F /  18.4 °C 58.5 °F /  14.7 °C 30.15in /  1020.9hPa Calm     79% 0.00in /  0mm 0.0 W/m2
22:29 64.9 °F /  18.3 °C 57.9 °F /  14.4 °C 30.15in /  1020.9hPa Calm     78% 0.00in /  0mm 0.0 W/m2
22:34 64.8 °F /  18.2 °C 57.7 °F /  14.3 °C 30.15in /  1020.9hPa Calm   1.0mph /  1.6km/h 78% 0.00in /  0mm 0.0 W/m2
22:39 64.8 °F /  18.2 °C 58.1 °F /  14.5 °C 30.15in /  1020.9hPa Calm     79% 0.00in /  0mm 0.0 W/m2
22:45 64.6 °F /  18.1 °C 57.9 °F /  14.4 °C 30.15in /  1020.9hPa Calm   1.0mph /  1.6km/h 79% 0.00in /  0mm 0.0 W/m2
22:46 64.6 °F /  18.1 °C 57.9 °F /  14.4 °C 30.15in /  1020.9hPa Calm   1.0mph /  1.6km/h 79% 0.00in /  0mm 0.0 W/m2
22:51 64.4 °F /  18 °C 57.4 °F /  14.1 °C 30.15in /  1020.9hPa Calm   1.0mph /  1.6km/h 78% 0.00in /  0mm 0.0 W/m2
22:56 64.2 °F /  17.9 °C 56.8 °F /  13.8 °C 30.15in /  1020.9hPa Calm     77% 0.00in /  0mm 0.0 W/m2
23:01 64.2 °F /  17.9 °C 57.2 °F /  14 °C 30.15in /  1020.9hPa Calm     78% 0.00in /  0mm 0.0 W/m2
23:06 64.0 °F /  17.8 °C 56.3 °F /  13.5 °C 30.15in /  1020.9hPa Calm   1.0mph /  1.6km/h 76% 0.00in /  0mm 0.0 W/m2
23:11 64.0 °F /  17.8 °C 56.3 °F /  13.5 °C 30.15in /  1020.9hPa Calm   2.0mph /  3.2km/h 76% 0.00in /  0mm 0.0 W/m2
23:14 64.0 °F /  17.8 °C 56.7 °F /  13.7 °C 30.15in /  1020.9hPa SE 0.9mph /  1.4km/h 2.0mph /  3.2km/h 77% 0.00in /  0mm 0.0 W/m2
23:19 64.0 °F /  17.8 °C 57.0 °F /  13.9 °C 30.15in /  1020.9hPa Calm   2.0mph /  3.2km/h 78% 0.00in /  0mm 0.0 W/m2
23:24 63.9 °F /  17.7 °C 57.2 °F /  14 °C 30.15in /  1020.9hPa Calm   1.0mph /  1.6km/h 79% 0.00in /  0mm 0.0 W/m2
23:30 64.0 °F /  17.8 °C 57.7 °F /  14.3 °C 30.16in /  1021.2hPa Calm   1.0mph /  1.6km/h 80% 0.00in /  0mm 0.0 W/m2
23:35 64.0 °F /  17.8 °C 57.7 °F /  14.3 °C 30.15in /  1020.9hPa ESE 0.9mph /  1.4km/h 1.0mph /  1.6km/h 80% 0.00in /  0mm 0.0 W/m2
23:40 63.9 °F /  17.7 °C 57.2 °F /  14 °C 30.15in /  1020.9hPa Calm   1.0mph /  1.6km/h 79% 0.00in /  0mm 0.0 W/m2
23:46 63.9 °F /  17.7 °C 57.6 °F /  14.2 °C 30.15in /  1020.9hPa ESE 0.9mph /  1.4km/h 2.0mph /  3.2km/h 80% 0.00in /  0mm 0.0 W/m2
23:49 63.9 °F /  17.7 °C 57.6 °F /  14.2 °C 30.15in /  1020.9hPa Calm   1.0mph /  1.6km/h 80% 0.00in /  0mm 0.0 W/m2
23:55 63.9 °F /  17.7 °C 57.2 °F /  14 °C 30.15in /  1020.9hPa Calm   1.0mph /  1.6km/h 79% 0.00in /  0mm 0.0 W/m2
23:57 63.9 °F /  17.7 °C 56.8 °F /  13.8 °C 30.15in /  1020.9hPa ESE 0.9mph /  1.4km/h 1.0mph /  1.6km/h 78% 0.00in /  0mm 0.0 W/m2
Olympia, Windhoek, Namibia
Compliments of Weather Underground - 3.5 mb